Time,TemperatureF,DewpointF,PressureIn,WindDirection,WindDirectionDegrees,WindSpeedMPH,WindSpeedGustMPH,Humidity,HourlyPrecipIn,Conditions,Clouds,dailyrainin,SoftwareType,DateUTC
2013-05-13 00:00:00,34.4,30.1,30.12,NNW,338,0.0,0.0,84,0.00,,---,0.00,VWS V14.01,2013-05-13 04:00:00,
2013-05-13 00:01:00,34.4,30.1,30.12,NNW,337,0.0,0.0,84,0.00,,---,0.00,VWS V14.01,2013-05-13 04:01:00,
2013-05-13 00:02:00,34.3,30.0,30.12,NNW,338,0.0,0.0,84,0.00,,---,0.00,VWS V14.01,2013-05-13 04:02:00,
2013-05-13 00:07:00,33.9,29.6,30.12,NNW,338,0.0,0.0,84,0.00,,---,0.00,VWS V14.01,2013-05-13 04:07:00,
2013-05-13 00:12:00,33.5,29.5,30.12,NNW,338,0.0,0.0,85,0.00,,---,0.00,VWS V14.01,2013-05-13 04:12:00,
2013-05-13 00:17:00,33.2,29.8,30.12,NNW,338,0.0,0.0,87,0.00,,---,0.00,VWS V14.01,2013-05-13 04:17:00,
2013-05-13 00:22:00,33.3,30.1,30.12,NNW,338,0.0,0.0,88,0.00,,---,0.00,VWS V14.01,2013-05-13 04:22:00,
2013-05-13 00:27:00,33.4,30.2,30.12,NNW,337,0.0,0.0,88,0.00,,---,0.00,VWS V14.01,2013-05-13 04:27:00,
2013-05-13 00:30:00,33.3,30.1,30.12,NNW,338,0.0,0.0,88,0.00,,---,0.00,VWS V14.01,2013-05-13 04:30:00,
2013-05-13 00:32:00,33.2,30.0,30.12,NNW,337,0.0,0.0,88,0.00,,---,0.00,VWS V14.01,2013-05-13 04:32:00,
2013-05-13 00:37:00,33.2,30.3,30.12,NNW,337,0.0,0.0,89,0.00,,---,0.00,VWS V14.01,2013-05-13 04:37:00,
2013-05-13 00:42:00,33.1,30.2,30.12,NNW,337,0.0,0.0,89,0.00,,---,0.00,VWS V14.01,2013-05-13 04:42:00,
2013-05-13 00:47:00,32.7,29.5,30.12,NNW,337,0.0,0.0,88,0.00,,---,0.00,VWS V14.01,2013-05-13 04:47:00,
2013-05-13 00:52:00,32.2,29.3,30.12,NNW,337,0.0,0.0,89,0.00,,---,0.00,VWS V14.01,2013-05-13 04:52:00,
2013-05-13 00:57:00,31.7,28.8,30.12,NNW,338,0.0,0.0,89,0.00,,---,0.00,VWS V14.01,2013-05-13 04:57:00,
2013-05-13 01:00:00,31.6,28.7,30.12,NNW,338,0.0,0.0,89,0.00,,---,0.00,VWS V14.01,2013-05-13 05:00:00,
2013-05-13 01:02:00,31.4,28.8,30.12,NNW,338,0.0,0.0,90,0.00,,---,0.00,VWS V14.01,2013-05-13 05:02:00,
2013-05-13 01:07:00,31.6,29.3,30.12,NNW,337,0.0,0.0,91,0.00,,---,0.00,VWS V14.01,2013-05-13 05:07:00,
2013-05-13 01:12:00,31.8,29.8,30.11,NNW,337,0.0,0.0,92,0.00,,---,0.00,VWS V14.01,2013-05-13 05:12:00,
2013-05-13 01:17:00,31.7,29.4,30.11,NNW,338,0.0,0.0,91,0.00,,---,0.00,VWS V14.01,2013-05-13 05:17:00,
2013-05-13 01:22:00,31.6,29.3,30.11,NNW,337,0.0,0.0,91,0.00,,---,0.00,VWS V14.01,2013-05-13 05:22:00,
2013-05-13 01:27:00,31.4,29.4,30.11,NNW,338,0.0,0.0,92,0.00,,---,0.00,VWS V14.01,2013-05-13 05:27:00,
2013-05-13 01:30:00,31.3,29.2,30.11,NNW,338,0.0,0.0,92,0.00,,---,0.00,VWS V14.01,2013-05-13 05:30:00,
2013-05-13 01:32:00,31.2,29.1,30.11,NNW,337,0.0,0.0,92,0.00,,---,0.00,VWS V14.01,2013-05-13 05:32:00,
2013-05-13 01:37:00,31.7,29.9,30.11,NNW,338,0.0,0.0,93,0.00,,---,0.00,VWS V14.01,2013-05-13 05:37:00,
2013-05-13 01:42:00,31.8,30.0,30.11,NNW,337,0.0,0.0,93,0.00,,---,0.00,VWS V14.01,2013-05-13 05:42:00,
2013-05-13 01:47:00,31.6,29.8,30.11,NNW,337,0.0,0.0,93,0.00,,---,0.00,VWS V14.01,2013-05-13 05:47:00,
2013-05-13 01:52:00,31.8,30.0,30.11,NNW,337,0.0,0.0,93,0.00,,---,0.00,VWS V14.01,2013-05-13 05:52:00,
2013-05-13 01:57:00,32.3,30.8,30.11,NNW,337,0.0,0.0,94,0.00,,---,0.00,VWS V14.01,2013-05-13 05:57:00,
2013-05-13 02:00:00,32.3,30.8,30.11,NNW,337,0.0,0.0,94,0.00,,---,0.00,VWS V14.01,2013-05-13 06:00:00,
2013-05-13 02:02:00,32.3,30.5,30.11,NNW,337,0.0,0.0,93,0.00,,---,0.00,VWS V14.01,2013-05-13 06:02:00,
2013-05-13 02:07:00,32.3,30.5,30.11,NNW,337,0.0,0.0,93,0.00,,---,0.00,VWS V14.01,2013-05-13 06:07:00,
2013-05-13 02:13:00,32.3,30.8,30.12,NNW,338,0.0,0.0,94,0.00,,---,0.00,VWS V14.01,2013-05-13 06:13:00,
2013-05-13 02:18:00,32.5,31.0,30.12,NNW,338,0.0,0.0,94,0.00,,---,0.00,VWS V14.01,2013-05-13 06:18:00,
2013-05-13 02:23:00,32.7,31.2,30.12,NNW,337,0.0,0.0,94,0.00,,---,0.00,VWS V14.01,2013-05-13 06:23:00,
2013-05-13 02:28:00,33.1,31.6,30.12,NNW,337,0.0,0.0,94,0.00,,---,0.00,VWS V14.01,2013-05-13 06:28:00,
2013-05-13 02:30:00,33.2,31.7,30.12,NNW,338,0.0,0.0,94,0.00,,---,0.00,VWS V14.01,2013-05-13 06:30:00,
2013-05-13 02:33:00,33.2,31.7,30.11,NNW,338,0.0,0.0,94,0.00,,---,0.00,VWS V14.01,2013-05-13 06:33:00,
2013-05-13 02:38:00,33.6,32.1,30.11,NNW,338,0.0,0.0,94,0.00,,---,0.00,VWS V14.01,2013-05-13 06:38:00,
2013-05-13 02:43:00,33.6,32.1,30.12,NNW,338,0.0,0.0,94,0.00,,---,0.00,VWS V14.01,2013-05-13 06:43:00,
2013-05-13 02:48:00,33.7,32.2,30.12,NNW,338,0.0,0.0,94,0.00,,---,0.00,VWS V14.01,2013-05-13 06:48:00,
2013-05-13 02:53:00,33.8,32.3,30.12,NNW,338,0.0,0.0,94,0.00,,---,0.00,VWS V14.01,2013-05-13 06:53:00,
2013-05-13 02:58:00,34.0,32.7,30.12,NNW,338,0.0,0.0,95,0.00,,---,0.00,VWS V14.01,2013-05-13 06:58:00,
2013-05-13 03:00:00,34.1,32.8,30.12,NNW,337,0.0,0.0,95,0.00,,---,0.00,VWS V14.01,2013-05-13 07:00:00,
2013-05-13 03:03:00,34.1,32.8,30.12,NNW,338,0.0,0.0,95,0.00,,---,0.00,VWS V14.01,2013-05-13 07:03:00,
2013-05-13 03:08:00,34.1,32.6,30.12,NNW,337,0.0,0.0,94,0.00,,---,0.00,VWS V14.01,2013-05-13 07:08:00,
2013-05-13 03:13:00,34.2,32.9,30.12,NNW,338,0.0,0.0,95,0.00,,---,0.00,VWS V14.01,2013-05-13 07:13:00,
2013-05-13 03:18:00,34.4,33.1,30.12,NNW,338,0.0,0.0,95,0.00,,---,0.00,VWS V14.01,2013-05-13 07:18:00,
2013-05-13 03:23:00,34.4,33.1,30.12,NNW,338,0.0,0.0,95,0.00,,---,0.00,VWS V14.01,2013-05-13 07:23:00,
2013-05-13 03:28:00,34.4,32.9,30.12,NNW,338,0.0,0.0,94,0.00,,---,0.00,VWS V14.01,2013-05-13 07:28:00,
2013-05-13 03:30:00,34.4,33.1,30.12,NNW,337,0.0,0.0,95,0.00,,---,0.00,VWS V14.01,2013-05-13 07:30:00,
2013-05-13 03:33:00,34.5,33.2,30.12,NNW,338,0.0,0.0,95,0.00,,---,0.00,VWS V14.01,2013-05-13 07:33:00,
2013-05-13 03:38:00,34.5,33.2,30.12,NNW,338,0.0,0.0,95,0.00,,---,0.00,VWS V14.01,2013-05-13 07:38:00,
2013-05-13 03:43:00,34.5,33.2,30.12,NNW,337,0.0,0.0,95,0.00,,---,0.00,VWS V14.01,2013-05-13 07:43:00,
2013-05-13 03:48:00,34.4,33.1,30.12,NNW,337,0.0,0.0,95,0.00,,---,0.00,VWS V14.01,2013-05-13 07:48:00,
2013-05-13 03:53:00,34.3,32.8,30.12,NNW,338,0.0,0.0,94,0.00,,---,0.00,VWS V14.01,2013-05-13 07:53:00,
2013-05-13 03:58:00,34.3,33.0,30.12,NNW,338,0.0,0.0,95,0.00,,---,0.00,VWS V14.01,2013-05-13 07:58:00,
2013-05-13 04:00:00,34.2,32.9,30.12,NNW,336,0.0,0.0,95,0.00,,---,0.00,VWS V14.01,2013-05-13 08:00:00,
2013-05-13 04:03:00,34.2,32.9,30.12,NNW,336,0.0,0.0,95,0.00,,---,0.00,VWS V14.01,2013-05-13 08:03:00,
2013-05-13 04:08:00,34.3,33.0,30.12,NNW,335,0.0,0.0,95,0.00,,---,0.00,VWS V14.01,2013-05-13 08:08:00,
2013-05-13 04:13:00,34.3,33.0,30.12,NNW,335,0.0,0.0,95,0.00,,---,0.00,VWS V14.01,2013-05-13 08:13:00,
2013-05-13 04:18:00,34.2,32.9,30.12,NNW,336,0.0,0.0,95,0.00,,---,0.00,VWS V14.01,2013-05-13 08:18:00,
2013-05-13 04:23:00,34.2,32.9,30.12,NNW,335,0.0,0.0,95,0.00,,---,0.00,VWS V14.01,2013-05-13 08:23:00,
2013-05-13 04:28:00,34.1,32.8,30.12,NNW,335,0.0,0.0,95,0.00,,---,0.00,VWS V14.01,2013-05-13 08:28:00,
2013-05-13 04:30:00,34.1,32.8,30.12,NNW,336,0.0,0.0,95,0.00,,---,0.00,VWS V14.01,2013-05-13 08:30:00,
2013-05-13 04:33:00,34.0,32.7,30.12,NNW,335,0.0,0.0,95,0.00,,---,0.00,VWS V14.01,2013-05-13 08:33:00,
2013-05-13 04:38:00,34.0,32.7,30.12,NNW,335,0.0,0.0,95,0.00,,---,0.00,VWS V14.01,2013-05-13 08:38:00,
2013-05-13 04:43:00,33.8,32.3,30.13,NNW,335,0.0,0.0,94,0.00,,---,0.00,VWS V14.01,2013-05-13 08:43:00,
2013-05-13 04:48:00,33.7,32.2,30.12,NNW,335,0.0,0.0,94,0.00,,---,0.00,VWS V14.01,2013-05-13 08:48:00,
2013-05-13 04:53:00,33.6,32.3,30.13,NNW,335,0.0,0.0,95,0.00,,---,0.00,VWS V14.01,2013-05-13 08:53:00,
2013-05-13 04:58:00,33.5,32.2,30.13,NNW,335,0.0,0.0,95,0.00,,---,0.00,VWS V14.01,2013-05-13 08:58:00,
2013-05-13 05:00:00,33.4,32.1,30.13,NNW,335,0.0,0.0,95,0.00,,---,0.00,VWS V14.01,2013-05-13 09:00:00,
2013-05-13 05:03:00,33.3,32.0,30.13,NNW,335,0.0,0.0,95,0.00,,---,0.00,VWS V14.01,2013-05-13 09:03:00,
2013-05-13 05:08:00,33.1,31.6,30.13,NNW,335,0.0,0.0,94,0.00,,---,0.00,VWS V14.01,2013-05-13 09:08:00,
2013-05-13 05:13:00,33.4,32.1,30.12,NNW,336,0.0,0.0,95,0.00,,---,0.00,VWS V14.01,2013-05-13 09:13:00,
2013-05-13 05:18:00,33.6,32.3,30.12,NNW,335,0.0,0.0,95,0.00,,---,0.00,VWS V14.01,2013-05-13 09:18:00,
2013-05-13 05:23:00,33.5,32.2,30.13,NNW,335,0.0,0.0,95,0.00,,---,0.00,VWS V14.01,2013-05-13 09:23:00,
2013-05-13 05:28:00,33.3,32.0,30.13,NNW,336,0.0,0.0,95,0.00,,---,0.00,VWS V14.01,2013-05-13 09:28:00,
2013-05-13 05:30:00,33.2,31.9,30.13,NNW,335,0.0,0.0,95,0.00,,---,0.00,VWS V14.01,2013-05-13 09:30:00,
2013-05-13 05:33:00,33.0,31.7,30.13,NNW,335,0.0,0.0,95,0.00,,---,0.00,VWS V14.01,2013-05-13 09:33:00,
2013-05-13 05:38:00,32.7,31.4,30.13,NNW,335,0.0,0.0,95,0.00,,---,0.00,VWS V14.01,2013-05-13 09:38:00,
2013-05-13 05:43:00,32.5,31.2,30.13,NNW,335,0.0,0.0,95,0.00,,---,0.00,VWS V14.01,2013-05-13 09:43:00,
2013-05-13 05:48:00,32.5,31.2,30.13,NNW,336,0.0,1.0,95,0.00,,---,0.00,VWS V14.01,2013-05-13 09:48:00,
2013-05-13 05:53:00,32.6,31.3,30.13,NNW,335,0.0,1.0,95,0.00,,---,0.00,VWS V14.01,2013-05-13 09:53:00,
2013-05-13 05:58:00,32.3,31.0,30.13,NNW,335,0.0,1.0,95,0.00,,---,0.00,VWS V14.01,2013-05-13 09:58:00,
2013-05-13 06:00:00,32.2,30.9,30.13,NNW,336,0.0,1.0,95,0.00,,---,0.00,VWS V14.01,2013-05-13 10:00:00,
2013-05-13 06:03:00,32.0,30.7,30.13,NNW,335,0.0,0.0,95,0.00,,---,0.00,VWS V14.01,2013-05-13 10:03:00,
2013-05-13 06:08:00,31.7,30.4,30.13,NNW,335,0.0,0.0,95,0.00,,---,0.00,VWS V14.01,2013-05-13 10:08:00,
2013-05-13 06:13:00,31.5,30.2,30.13,NNW,335,0.0,0.0,95,0.00,,---,0.00,VWS V14.01,2013-05-13 10:13:00,
2013-05-13 06:18:00,31.2,29.9,30.13,NNW,335,0.0,0.0,95,0.00,,---,0.00,VWS V14.01,2013-05-13 10:18:00,
2013-05-13 06:23:00,31.1,29.8,30.13,NNW,336,0.0,0.0,95,0.00,,---,0.00,VWS V14.01,2013-05-13 10:23:00,
2013-05-13 06:28:00,30.9,29.6,30.14,NNW,335,0.0,0.0,95,0.00,,---,0.00,VWS V14.01,2013-05-13 10:28:00,
2013-05-13 06:30:00,31.0,29.7,30.14,NNW,336,0.0,0.0,95,0.00,,---,0.00,VWS V14.01,2013-05-13 10:30:00,
2013-05-13 06:33:00,30.9,29.6,30.14,NNW,336,0.0,0.0,95,0.00,,---,0.00,VWS V14.01,2013-05-13 10:33:00,
2013-05-13 06:38:00,31.0,29.7,30.14,NNW,335,0.0,0.0,95,0.00,,---,0.00,VWS V14.01,2013-05-13 10:38:00,
2013-05-13 06:43:00,31.0,29.7,30.14,NNW,335,0.0,0.0,95,0.00,,---,0.00,VWS V14.01,2013-05-13 10:43:00,
2013-05-13 06:48:00,31.4,30.1,30.13,NNW,335,0.0,0.0,95,0.00,,---,0.00,VWS V14.01,2013-05-13 10:48:00,
2013-05-13 06:53:00,31.8,30.8,30.13,NNW,336,0.0,0.0,96,0.00,,---,0.00,VWS V14.01,2013-05-13 10:53:00,
2013-05-13 06:58:00,31.9,30.9,30.14,NNW,335,0.0,0.0,96,0.00,,---,0.00,VWS V14.01,2013-05-13 10:58:00,
2013-05-13 07:00:00,32.0,31.0,30.14,NNW,336,0.0,0.0,96,0.00,,---,0.00,VWS V14.01,2013-05-13 11:00:00,
2013-05-13 07:03:00,31.9,30.9,30.14,NNW,336,0.0,0.0,96,0.00,,---,0.00,VWS V14.01,2013-05-13 11:03:00,
2013-05-13 07:08:00,31.8,30.5,30.14,NNW,336,0.0,0.0,95,0.00,,---,0.00,VWS V14.01,2013-05-13 11:08:00,
2013-05-13 07:13:00,32.0,31.0,30.14,NNW,336,0.0,0.0,96,0.00,,---,0.00,VWS V14.01,2013-05-13 11:13:00,
2013-05-13 07:18:00,32.5,31.5,30.14,NNW,331,0.0,0.0,96,0.00,,---,0.00,VWS V14.01,2013-05-13 11:18:00,
2013-05-13 07:23:00,32.7,31.7,30.15,NNW,332,0.0,0.0,96,0.00,,---,0.00,VWS V14.01,2013-05-13 11:23:00,
2013-05-13 07:28:00,32.8,31.8,30.15,NNW,332,0.0,0.0,96,0.00,,---,0.00,VWS V14.01,2013-05-13 11:28:00,
2013-05-13 07:30:00,32.8,31.8,30.15,NNW,331,0.0,0.0,96,0.00,,---,0.00,VWS V14.01,2013-05-13 11:30:00,
2013-05-13 07:33:00,32.8,31.8,30.15,NNW,330,0.0,0.0,96,0.00,,---,0.00,VWS V14.01,2013-05-13 11:33:00,
2013-05-13 07:38:00,33.3,32.3,30.15,NNW,330,0.0,0.0,96,0.00,,---,0.00,VWS V14.01,2013-05-13 11:38:00,
2013-05-13 07:43:00,33.8,32.8,30.15,NNW,331,0.0,0.0,96,0.00,,---,0.00,VWS V14.01,2013-05-13 11:43:00,
2013-05-13 07:48:00,34.1,33.1,30.15,NNW,331,0.0,0.0,96,0.00,,---,0.00,VWS V14.01,2013-05-13 11:48:00,
2013-05-13 07:53:00,34.5,33.5,30.15,NNW,331,0.0,0.0,96,0.00,,---,0.00,VWS V14.01,2013-05-13 11:53:00,
2013-05-13 07:58:00,34.8,33.8,30.15,NNW,332,0.0,0.0,96,0.00,,---,0.00,VWS V14.01,2013-05-13 11:58:00,
2013-05-13 08:00:00,34.9,33.9,30.15,NNW,332,0.0,0.0,96,0.00,,---,0.00,VWS V14.01,2013-05-13 12:00:00,
2013-05-13 08:03:00,35.6,34.6,30.16,NNW,332,0.0,0.0,96,0.00,,---,0.00,VWS V14.01,2013-05-13 12:03:00,
2013-05-13 08:08:00,37.5,36.5,30.16,NNW,331,0.0,0.0,96,0.00,,---,0.00,VWS V14.01,2013-05-13 12:08:00,
2013-05-13 08:13:00,38.7,37.7,30.16,NNW,331,0.0,0.0,96,0.00,,---,0.00,VWS V14.01,2013-05-13 12:13:00,
2013-05-13 08:18:00,38.6,37.6,30.16,NNW,332,0.0,0.0,96,0.00,,---,0.00,VWS V14.01,2013-05-13 12:18:00,
2013-05-13 08:24:00,39.2,37.9,30.16,NNW,331,0.0,0.0,95,0.00,,---,0.00,VWS V14.01,2013-05-13 12:24:00,
2013-05-13 08:29:00,40.0,38.1,30.17,NNW,331,0.0,0.0,93,0.00,,---,0.00,VWS V14.01,2013-05-13 12:29:00,
2013-05-13 08:30:00,40.2,38.1,30.17,NNW,331,0.0,0.0,92,0.00,,---,0.00,VWS V14.01,2013-05-13 12:30:00,
2013-05-13 08:34:00,41.3,38.0,30.17,NNW,331,0.0,0.0,88,0.00,,---,0.00,VWS V14.01,2013-05-13 12:34:00,
2013-05-13 08:39:00,42.8,37.1,30.17,NNW,331,0.0,0.0,80,0.00,,---,0.00,VWS V14.01,2013-05-13 12:39:00,
2013-05-13 08:44:00,43.0,34.6,30.17,NW,317,0.0,1.0,72,0.00,,---,0.00,VWS V14.01,2013-05-13 12:44:00,
2013-05-13 08:49:00,43.3,34.2,30.17,NW,326,1.0,2.0,70,0.00,,---,0.00,VWS V14.01,2013-05-13 12:49:00,
2013-05-13 08:54:00,43.5,33.3,30.18,NW,316,1.0,2.0,67,0.00,,---,0.00,VWS V14.01,2013-05-13 12:54:00,
2013-05-13 08:59:00,44.0,33.8,30.18,NNW,347,0.0,2.0,67,0.00,,---,0.00,VWS V14.01,2013-05-13 12:59:00,
2013-05-13 09:00:00,44.2,34.3,30.18,NW,317,2.0,2.0,68,0.00,,---,0.00,VWS V14.01,2013-05-13 13:00:00,
2013-05-13 09:04:00,44.5,33.5,30.18,North,9,2.0,2.0,65,0.00,,---,0.00,VWS V14.01,2013-05-13 13:04:00,
2013-05-13 09:09:00,44.8,31.8,30.18,SE,129,1.0,3.0,60,0.00,,---,0.00,VWS V14.01,2013-05-13 13:09:00,
2013-05-13 09:14:00,45.9,32.4,30.18,NW,324,0.0,3.0,59,0.00,,---,0.00,VWS V14.01,2013-05-13 13:14:00,
2013-05-13 09:19:00,46.9,32.0,30.18,ESE,117,1.0,3.0,56,0.00,,---,0.00,VWS V14.01,2013-05-13 13:19:00,
2013-05-13 09:24:00,47.3,31.5,30.18,SE,129,2.0,3.0,54,0.00,,---,0.00,VWS V14.01,2013-05-13 13:24:00,
2013-05-13 09:29:00,47.0,31.7,30.17,SW,233,0.0,4.0,55,0.00,,---,0.00,VWS V14.01,2013-05-13 13:29:00,
2013-05-13 09:30:00,47.1,31.8,30.17,NW,308,2.0,4.0,55,0.00,,---,0.00,VWS V14.01,2013-05-13 13:30:00,
2013-05-13 09:34:00,46.9,29.7,30.17,NNW,344,3.0,3.0,51,0.00,,---,0.00,VWS V14.01,2013-05-13 13:34:00,
2013-05-13 09:39:00,47.2,29.5,30.17,SSW,201,2.0,3.0,50,0.00,,---,0.00,VWS V14.01,2013-05-13 13:39:00,
2013-05-13 09:44:00,47.5,29.8,30.17,SSW,207,2.0,4.0,50,0.00,,---,0.00,VWS V14.01,2013-05-13 13:44:00,
2013-05-13 09:49:00,47.7,29.0,30.18,NNW,330,3.0,4.0,48,0.00,,---,0.00,VWS V14.01,2013-05-13 13:49:00,
2013-05-13 09:54:00,47.5,28.8,30.18,NW,318,0.0,4.0,48,0.00,,---,0.00,VWS V14.01,2013-05-13 13:54:00,
2013-05-13 09:59:00,47.9,29.7,30.18,NW,317,3.0,4.0,49,0.00,,---,0.00,VWS V14.01,2013-05-13 13:59:00,
2013-05-13 10:00:00,47.9,29.7,30.18,North,6,1.0,4.0,49,0.00,,---,0.00,VWS V14.01,2013-05-13 14:00:00,
2013-05-13 10:04:00,47.7,29.5,30.18,NNW,328,1.0,6.0,49,0.00,,---,0.00,VWS V14.01,2013-05-13 14:04:00,
2013-05-13 10:09:00,47.8,30.1,30.18,WSW,245,1.0,7.0,50,0.00,,---,0.00,VWS V14.01,2013-05-13 14:09:00,
2013-05-13 10:14:00,48.1,29.4,30.18,SW,215,2.0,7.0,48,0.00,,---,0.00,VWS V14.01,2013-05-13 14:14:00,
2013-05-13 10:19:00,48.3,29.0,30.18,SW,217,3.0,7.0,47,0.00,,---,0.00,VWS V14.01,2013-05-13 14:19:00,
2013-05-13 10:24:00,48.7,29.4,30.18,NE,40,3.0,7.0,47,0.00,,---,0.00,VWS V14.01,2013-05-13 14:24:00,
2013-05-13 10:29:00,48.1,28.8,30.18,NW,319,2.0,8.0,47,0.00,,---,0.00,VWS V14.01,2013-05-13 14:29:00,
2013-05-13 10:30:00,48.2,29.5,30.18,NW,321,1.0,8.0,48,0.00,,---,0.00,VWS V14.01,2013-05-13 14:30:00,
2013-05-13 10:34:00,48.9,30.6,30.18,NNW,346,3.0,9.0,49,0.00,,---,0.00,VWS V14.01,2013-05-13 14:34:00,
2013-05-13 10:39:00,48.7,28.9,30.18,NNW,343,4.0,9.0,46,0.00,,---,0.00,VWS V14.01,2013-05-13 14:39:00,
2013-05-13 10:44:00,48.8,29.5,30.18,NNW,339,6.0,9.0,47,0.00,,---,0.00,VWS V14.01,2013-05-13 14:44:00,
2013-05-13 10:49:00,49.0,30.2,30.18,NW,323,3.0,9.0,48,0.00,,---,0.00,VWS V14.01,2013-05-13 14:49:00,
2013-05-13 10:54:00,49.1,30.3,30.18,NNW,335,2.0,9.0,48,0.00,,---,0.00,VWS V14.01,2013-05-13 14:54:00,
2013-05-13 10:59:00,49.4,29.5,30.18,SE,134,1.0,9.0,46,0.00,,---,0.00,VWS V14.01,2013-05-13 14:59:00,
2013-05-13 11:00:00,49.5,30.1,30.18,SE,131,1.0,9.0,47,0.00,,---,0.00,VWS V14.01,2013-05-13 15:00:00,
2013-05-13 11:04:00,49.9,30.0,30.18,North,355,2.0,6.0,46,0.00,,---,0.00,VWS V14.01,2013-05-13 15:04:00,
2013-05-13 11:09:00,50.0,30.6,30.18,NNW,348,5.0,9.0,47,0.00,,---,0.00,VWS V14.01,2013-05-13 15:09:00,
2013-05-13 11:14:00,50.0,31.1,30.18,WSW,243,3.0,9.0,48,0.00,,---,0.00,VWS V14.01,2013-05-13 15:14:00,
2013-05-13 11:19:00,50.7,29.6,30.18,WSW,247,1.0,9.0,44,0.00,,---,0.00,VWS V14.01,2013-05-13 15:19:00,
2013-05-13 11:24:00,51.0,30.4,30.18,West,280,4.0,9.0,45,0.00,,---,0.00,VWS V14.01,2013-05-13 15:24:00,
2013-05-13 11:29:00,51.0,31.0,30.18,SW,222,2.0,11.0,46,0.00,,---,0.00,VWS V14.01,2013-05-13 15:29:00,
2013-05-13 11:30:00,51.0,30.4,30.18,WSW,250,0.0,11.0,45,0.00,,---,0.00,VWS V14.01,2013-05-13 15:30:00,
2013-05-13 11:34:00,51.2,31.1,30.19,West,266,4.0,6.0,46,0.00,,---,0.00,VWS V14.01,2013-05-13 15:34:00,
2013-05-13 11:39:00,51.0,30.4,30.19,WNW,300,2.0,8.0,45,0.00,,---,0.00,VWS V14.01,2013-05-13 15:39:00,
2013-05-13 11:44:00,51.2,31.1,30.18,NNE,22,5.0,8.0,46,0.00,,---,0.00,VWS V14.01,2013-05-13 15:44:00,
2013-05-13 11:49:00,51.2,31.1,30.19,SW,224,2.0,8.0,46,0.00,,---,0.00,VWS V14.01,2013-05-13 15:49:00,
2013-05-13 11:54:00,51.6,31.0,30.18,NW,309,2.0,8.0,45,0.00,,---,0.00,VWS V14.01,2013-05-13 15:54:00,
2013-05-13 11:59:00,51.4,29.7,30.18,NNW,347,3.0,8.0,43,0.00,,---,0.00,VWS V14.01,2013-05-13 15:59:00,
2013-05-13 12:00:00,51.3,30.1,30.18,NNW,347,4.0,8.0,44,0.00,,---,0.00,VWS V14.01,2013-05-13 16:00:00,
2013-05-13 12:04:00,51.1,30.5,30.18,WNW,295,0.0,6.0,45,0.00,,---,0.00,VWS V14.01,2013-05-13 16:04:00,
2013-05-13 12:09:00,51.9,29.5,30.18,WNW,288,4.0,8.0,42,0.00,,---,0.00,VWS V14.01,2013-05-13 16:09:00,
2013-05-13 12:14:00,52.6,31.9,30.18,NW,306,3.0,8.0,45,0.00,,---,0.00,VWS V14.01,2013-05-13 16:14:00,
2013-05-13 12:19:00,52.9,32.7,30.18,NW,308,0.0,8.0,46,0.00,,---,0.00,VWS V14.01,2013-05-13 16:19:00,
2013-05-13 12:24:00,52.5,30.7,30.18,SW,215,4.0,8.0,43,0.00,,---,0.00,VWS V14.01,2013-05-13 16:24:00,
2013-05-13 12:29:00,52.7,29.7,30.18,North,356,1.0,8.0,41,0.00,,---,0.00,VWS V14.01,2013-05-13 16:29:00,
2013-05-13 12:30:00,52.7,29.1,30.18,WSW,247,1.0,8.0,40,0.00,,---,0.00,VWS V14.01,2013-05-13 16:30:00,
2013-05-13 12:34:00,52.6,29.0,30.18,SW,229,2.0,4.0,40,0.00,,---,0.00,VWS V14.01,2013-05-13 16:34:00,
2013-05-13 12:39:00,52.9,29.2,30.18,West,276,1.0,4.0,40,0.00,,---,0.00,VWS V14.01,2013-05-13 16:39:00,
2013-05-13 12:44:00,52.6,29.0,30.18,WNW,284,3.0,7.0,40,0.00,,---,0.00,VWS V14.01,2013-05-13 16:44:00,
2013-05-13 12:49:00,52.0,28.5,30.18,NW,321,0.0,7.0,40,0.00,,---,0.00,VWS V14.01,2013-05-13 16:49:00,
2013-05-13 12:54:00,52.1,29.7,30.18,NW,309,2.0,7.0,42,0.00,,---,0.00,VWS V14.01,2013-05-13 16:54:00,
2013-05-13 12:59:00,52.7,29.1,30.18,North,356,4.0,10.0,40,0.00,,---,0.00,VWS V14.01,2013-05-13 16:59:00,
2013-05-13 13:00:00,52.6,27.7,30.18,NNW,340,0.0,10.0,38,0.00,,---,0.00,VWS V14.01,2013-05-13 17:00:00,
2013-05-13 13:04:00,52.3,27.5,30.18,NW,304,1.0,9.0,38,0.00,,---,0.00,VWS V14.01,2013-05-13 17:04:00,
2013-05-13 13:09:00,52.1,27.9,30.18,North,356,5.0,9.0,39,0.00,,---,0.00,VWS V14.01,2013-05-13 17:09:00,
2013-05-13 13:14:00,53.3,30.8,30.18,NNE,27,10.0,11.0,42,0.00,,---,0.00,VWS V14.01,2013-05-13 17:14:00,
2013-05-13 13:19:00,52.7,28.5,30.18,NNW,343,7.0,13.0,39,0.00,,---,0.00,VWS V14.01,2013-05-13 17:19:00,
2013-05-13 13:24:00,53.4,31.5,30.18,NW,321,2.0,13.0,43,0.00,,---,0.00,VWS V14.01,2013-05-13 17:24:00,
2013-05-13 13:29:00,54.2,27.2,30.18,NNW,335,5.0,13.0,35,0.00,,---,0.00,VWS V14.01,2013-05-13 17:29:00,
2013-05-13 13:30:00,54.3,27.2,30.18,North,358,7.0,13.0,35,0.00,,---,0.00,VWS V14.01,2013-05-13 17:30:00,
2013-05-13 13:35:00,54.3,28.6,30.18,NNW,347,9.0,9.0,37,0.00,,---,0.00,VWS V14.01,2013-05-13 17:35:00,
2013-05-13 13:40:00,53.1,27.5,30.17,NW,311,8.0,13.0,37,0.00,,---,0.00,VWS V14.01,2013-05-13 17:40:00,
2013-05-13 13:45:00,52.5,27.6,30.17,NNW,342,4.0,13.0,38,0.00,,---,0.00,VWS V14.01,2013-05-13 17:45:00,
2013-05-13 13:50:00,52.1,27.3,30.18,NNW,335,5.0,14.0,38,0.00,,---,0.00,VWS V14.01,2013-05-13 17:50:00,
2013-05-13 13:55:00,52.6,29.0,30.18,NW,315,3.0,14.0,40,0.00,,---,0.00,VWS V14.01,2013-05-13 17:55:00,
2013-05-13 14:00:00,53.9,30.1,30.17,WNW,282,4.0,14.0,40,0.00,,---,0.00,VWS V14.01,2013-05-13 18:00:00,
2013-05-13 14:05:00,53.6,29.9,30.17,NNW,329,5.0,13.0,40,0.00,,---,0.00,VWS V14.01,2013-05-13 18:05:00,
2013-05-13 14:10:00,54.3,32.3,30.17,NNW,330,6.0,13.0,43,0.00,,---,0.00,VWS V14.01,2013-05-13 18:10:00,
2013-05-13 14:15:00,55.2,32.5,30.17,NNW,327,9.0,13.0,42,0.00,,---,0.00,VWS V14.01,2013-05-13 18:15:00,
2013-05-13 14:20:00,54.4,28.0,30.17,WSW,257,3.0,13.0,36,0.00,,---,0.00,VWS V14.01,2013-05-13 18:20:00,
2013-05-13 14:25:00,54.3,32.3,30.17,NNW,328,5.0,13.0,43,0.00,,---,0.00,VWS V14.01,2013-05-13 18:25:00,
2013-05-13 14:30:00,55.4,30.2,30.17,NW,321,3.0,13.0,38,0.00,,---,0.00,VWS V14.01,2013-05-13 18:30:00,
2013-05-13 14:35:00,54.9,27.8,30.17,SW,216,1.0,7.0,35,0.00,,---,0.00,VWS V14.01,2013-05-13 18:35:00,
2013-05-13 14:40:00,54.2,30.4,30.17,West,275,5.0,8.0,40,0.00,,---,0.00,VWS V14.01,2013-05-13 18:40:00,
2013-05-13 14:45:00,54.9,29.1,30.16,NNW,339,4.0,8.0,37,0.00,,---,0.00,VWS V14.01,2013-05-13 18:45:00,
2013-05-13 14:50:00,54.5,28.1,30.17,North,4,8.0,12.0,36,0.00,,---,0.00,VWS V14.01,2013-05-13 18:50:00,
2013-05-13 14:55:00,53.8,29.4,30.16,NW,326,1.0,12.0,39,0.00,,---,0.00,VWS V14.01,2013-05-13 18:55:00,
2013-05-13 15:00:00,53.9,28.9,30.16,WNW,301,5.0,14.0,38,0.00,,---,0.00,VWS V14.01,2013-05-13 19:00:00,
2013-05-13 15:05:00,55.3,30.1,30.16,WNW,290,2.0,11.0,38,0.00,,---,0.00,VWS V14.01,2013-05-13 19:05:00,
2013-05-13 15:10:00,55.5,29.7,30.16,North,360,6.0,11.0,37,0.00,,---,0.00,VWS V14.01,2013-05-13 19:10:00,
2013-05-13 15:15:00,55.9,30.7,30.16,NW,315,1.0,11.0,38,0.00,,---,0.00,VWS V14.01,2013-05-13 19:15:00,
2013-05-13 15:20:00,56.9,32.2,30.16,WNW,294,3.0,11.0,39,0.00,,---,0.00,VWS V14.01,2013-05-13 19:20:00,
2013-05-13 15:25:00,56.6,30.0,30.16,NNW,330,4.0,11.0,36,0.00,,---,0.00,VWS V14.01,2013-05-13 19:25:00,
2013-05-13 15:30:00,56.6,28.6,30.15,NW,309,1.0,11.0,34,0.00,,---,0.00,VWS V14.01,2013-05-13 19:30:00,
2013-05-13 15:35:00,56.7,28.7,30.15,NNE,13,10.0,10.0,34,0.00,,---,0.00,VWS V14.01,2013-05-13 19:35:00,
2013-05-13 15:40:00,56.2,28.2,30.15,NW,316,3.0,10.0,34,0.00,,---,0.00,VWS V14.01,2013-05-13 19:40:00,
2013-05-13 15:45:00,56.2,28.9,30.15,NNW,331,7.0,10.0,35,0.00,,---,0.00,VWS V14.01,2013-05-13 19:45:00,
2013-05-13 15:50:00,56.7,29.4,30.15,West,275,5.0,11.0,35,0.00,,---,0.00,VWS V14.01,2013-05-13 19:50:00,
2013-05-13 15:55:00,57.1,31.8,30.15,WNW,286,0.0,11.0,38,0.00,,---,0.00,VWS V14.01,2013-05-13 19:55:00,
2013-05-13 16:00:00,57.6,29.5,30.15,SSE,148,2.0,11.0,34,0.00,,---,0.00,VWS V14.01,2013-05-13 20:00:00,
2013-05-13 16:05:00,57.4,29.3,30.14,North,6,3.0,11.0,34,0.00,,---,0.00,VWS V14.01,2013-05-13 20:05:00,
2013-05-13 16:10:00,57.6,30.2,30.14,NNW,329,3.0,11.0,35,0.00,,---,0.00,VWS V14.01,2013-05-13 20:10:00,
2013-05-13 16:15:00,57.1,30.4,30.14,NW,319,2.0,11.0,36,0.00,,---,0.00,VWS V14.01,2013-05-13 20:15:00,
2013-05-13 16:20:00,56.7,28.7,30.14,NNE,16,9.0,11.0,34,0.00,,---,0.00,VWS V14.01,2013-05-13 20:20:00,
2013-05-13 16:25:00,57.0,29.6,30.13,NW,316,4.0,11.0,35,0.00,,---,0.00,VWS V14.01,2013-05-13 20:25:00,
2013-05-13 16:30:00,57.4,29.3,30.13,NW,318,6.0,12.0,34,0.00,,---,0.00,VWS V14.01,2013-05-13 20:30:00,
2013-05-13 16:35:00,58.1,28.4,30.13,NW,323,3.0,8.0,32,0.00,,---,0.00,VWS V14.01,2013-05-13 20:35:00,
2013-05-13 16:40:00,58.1,28.4,30.13,South,191,10.0,11.0,32,0.00,,---,0.00,VWS V14.01,2013-05-13 20:40:00,
2013-05-13 16:45:00,57.7,27.3,30.13,West,263,1.0,11.0,31,0.00,,---,0.00,VWS V14.01,2013-05-13 20:45:00,
2013-05-13 16:50:00,58.0,28.3,30.13,West,277,2.0,11.0,32,0.00,,---,0.00,VWS V14.01,2013-05-13 20:50:00,
2013-05-13 16:55:00,58.2,29.3,30.12,NW,316,6.0,12.0,33,0.00,,---,0.00,VWS V14.01,2013-05-13 20:55:00,
2013-05-13 17:00:00,58.0,29.8,30.12,NW,306,3.0,6.0,34,0.00,,---,0.00,VWS V14.01,2013-05-13 21:00:00,
2013-05-13 17:05:00,58.0,28.3,30.12,NNW,345,6.0,10.0,32,0.00,,---,0.00,VWS V14.01,2013-05-13 21:05:00,
2013-05-13 17:10:00,58.1,26.9,30.12,NW,308,1.0,10.0,30,0.00,,---,0.00,VWS V14.01,2013-05-13 21:10:00,
2013-05-13 17:15:00,58.2,30.0,30.12,NW,311,3.0,11.0,34,0.00,,---,0.00,VWS V14.01,2013-05-13 21:15:00,
2013-05-13 17:20:00,58.1,28.4,30.12,NNE,29,0.0,11.0,32,0.00,,---,0.00,VWS V14.01,2013-05-13 21:20:00,
2013-05-13 17:25:00,58.0,28.3,30.11,NNE,16,6.0,13.0,32,0.00,,---,0.00,VWS V14.01,2013-05-13 21:25:00,
2013-05-13 17:30:00,58.4,30.2,30.12,NNW,347,6.0,7.0,34,0.00,,---,0.00,VWS V14.01,2013-05-13 21:30:00,
2013-05-13 17:35:00,58.2,29.3,30.11,NW,318,6.0,11.0,33,0.00,,---,0.00,VWS V14.01,2013-05-13 21:35:00,
2013-05-13 17:40:00,58.5,29.5,30.11,NW,319,2.0,11.0,33,0.00,,---,0.00,VWS V14.01,2013-05-13 21:40:00,
2013-05-13 17:45:00,58.8,29.0,30.11,South,174,2.0,12.0,32,0.00,,---,0.00,VWS V14.01,2013-05-13 21:45:00,
2013-05-13 17:50:00,59.0,30.0,30.11,NW,316,4.0,12.0,33,0.00,,---,0.00,VWS V14.01,2013-05-13 21:50:00,
2013-05-13 17:55:00,59.0,28.4,30.11,NW,318,1.0,12.0,31,0.00,,---,0.00,VWS V14.01,2013-05-13 21:55:00,
2013-05-13 18:00:00,59.3,27.1,30.11,WNW,300,3.0,12.0,29,0.00,,---,0.00,VWS V14.01,2013-05-13 22:00:00,
2013-05-13 18:01:00,59.3,27.1,30.11,West,275,3.0,4.0,29,0.00,,---,0.00,VWS V14.01,2013-05-13 22:01:00,
2013-05-13 18:06:00,59.1,27.7,30.11,WNW,283,5.0,7.0,30,0.00,,---,0.00,VWS V14.01,2013-05-13 22:06:00,
2013-05-13 18:11:00,59.6,30.5,30.11,NW,316,2.0,7.0,33,0.00,,---,0.00,VWS V14.01,2013-05-13 22:11:00,
2013-05-13 18:16:00,59.7,27.4,30.11,NW,322,4.0,8.0,29,0.00,,---,0.00,VWS V14.01,2013-05-13 22:16:00,
2013-05-13 18:21:00,59.8,27.5,30.11,NW,326,2.0,9.0,29,0.00,,---,0.00,VWS V14.01,2013-05-13 22:21:00,
2013-05-13 18:26:00,59.6,29.0,30.11,SE,146,0.0,11.0,31,0.00,,---,0.00,VWS V14.01,2013-05-13 22:26:00,
2013-05-13 18:30:00,59.7,28.2,30.10,North,1,2.0,11.0,30,0.00,,---,0.00,VWS V14.01,2013-05-13 22:30:00,
2013-05-13 18:31:00,59.7,28.2,30.10,NW,326,3.0,5.0,30,0.00,,---,0.00,VWS V14.01,2013-05-13 22:31:00,
2013-05-13 18:36:00,59.6,28.1,30.10,SSW,210,1.0,9.0,30,0.00,,---,0.00,VWS V14.01,2013-05-13 22:36:00,
2013-05-13 18:41:00,59.3,26.2,30.10,NNW,333,3.0,9.0,28,0.00,,---,0.00,VWS V14.01,2013-05-13 22:41:00,
2013-05-13 18:46:00,59.1,27.7,30.10,NNW,347,7.0,9.0,30,0.00,,---,0.00,VWS V14.01,2013-05-13 22:46:00,
2013-05-13 18:51:00,59.2,27.0,30.10,NNW,347,3.0,9.0,29,0.00,,---,0.00,VWS V14.01,2013-05-13 22:51:00,
2013-05-13 18:56:00,59.0,26.8,30.10,NW,316,4.0,9.0,29,0.00,,---,0.00,VWS V14.01,2013-05-13 22:56:00,
2013-05-13 19:00:00,58.6,25.6,30.10,NW,312,3.0,11.0,28,0.00,,---,0.00,VWS V14.01,2013-05-13 23:00:00,
2013-05-13 19:01:00,58.6,25.6,30.10,WNW,292,2.0,3.0,28,0.00,,---,0.00,VWS V14.01,2013-05-13 23:01:00,
2013-05-13 19:06:00,58.4,25.5,30.10,NNW,335,4.0,10.0,28,0.00,,---,0.00,VWS V14.01,2013-05-13 23:06:00,
2013-05-13 19:11:00,58.1,26.9,30.10,NW,312,0.0,10.0,30,0.00,,---,0.00,VWS V14.01,2013-05-13 23:11:00,
2013-05-13 19:16:00,58.1,25.2,30.11,NW,309,6.0,10.0,28,0.00,,---,0.00,VWS V14.01,2013-05-13 23:16:00,
2013-05-13 19:21:00,58.1,25.2,30.11,NNW,347,5.0,10.0,28,0.00,,---,0.00,VWS V14.01,2013-05-13 23:21:00,
2013-05-13 19:26:00,58.0,25.1,30.11,West,267,2.0,10.0,28,0.00,,---,0.00,VWS V14.01,2013-05-13 23:26:00,
2013-05-13 19:30:00,57.6,23.9,30.11,NW,316,7.0,10.0,27,0.00,,---,0.00,VWS V14.01,2013-05-13 23:30:00,
2013-05-13 19:31:00,57.6,25.6,30.11,NNW,330,7.0,10.0,29,0.00,,---,0.00,VWS V14.01,2013-05-13 23:31:00,
2013-05-13 19:36:00,57.2,25.2,30.11,WNW,283,4.0,12.0,29,0.00,,---,0.00,VWS V14.01,2013-05-13 23:36:00,
2013-05-13 19:41:00,56.9,24.1,30.11,NNW,347,2.0,12.0,28,0.00,,---,0.00,VWS V14.01,2013-05-13 23:41:00,
2013-05-13 19:46:00,56.4,24.6,30.11,NW,323,1.0,12.0,29,0.00,,---,0.00,VWS V14.01,2013-05-13 23:46:00,
2013-05-13 19:51:00,55.7,24.8,30.11,NNW,343,2.0,12.0,30,0.00,,---,0.00,VWS V14.01,2013-05-13 23:51:00,
2013-05-13 19:56:00,55.1,24.2,30.12,NNW,331,2.0,12.0,30,0.00,,---,0.00,VWS V14.01,2013-05-13 23:56:00,
2013-05-13 20:00:00,54.7,25.4,30.12,NW,309,4.0,12.0,32,0.00,,---,0.00,VWS V14.01,2013-05-14 00:00:00,
2013-05-13 20:01:00,54.6,24.6,30.12,North,6,3.0,4.0,31,0.00,,---,0.00,VWS V14.01,2013-05-14 00:01:00,
2013-05-13 20:06:00,54.2,25.0,30.12,NNW,327,1.0,4.0,32,0.00,,---,0.00,VWS V14.01,2013-05-14 00:06:00,
2013-05-13 20:11:00,53.6,25.9,30.12,NNW,337,0.0,4.0,34,0.00,,---,0.00,VWS V14.01,2013-05-14 00:11:00,
2013-05-13 20:16:00,52.8,27.9,30.12,NNW,339,0.0,4.0,38,0.00,,---,0.00,VWS V14.01,2013-05-14 00:16:00,
2013-05-13 20:21:00,52.0,27.8,30.12,NNW,339,0.0,4.0,39,0.00,,---,0.00,VWS V14.01,2013-05-14 00:21:00,
2013-05-13 20:26:00,51.3,27.8,30.12,NNW,339,0.0,4.0,40,0.00,,---,0.00,VWS V14.01,2013-05-14 00:26:00,
2013-05-13 20:30:00,50.6,26.6,30.12,NNW,339,0.0,4.0,39,0.00,,---,0.00,VWS V14.01,2013-05-14 00:30:00,
2013-05-13 20:31:00,50.5,26.5,30.12,NNW,339,0.0,0.0,39,0.00,,---,0.00,VWS V14.01,2013-05-14 00:31:00,
2013-05-13 20:36:00,49.9,24.7,30.12,NNW,339,0.0,0.0,37,0.00,,---,0.00,VWS V14.01,2013-05-14 00:36:00,
2013-05-13 20:41:00,49.5,28.5,30.12,NNW,339,0.0,0.0,44,0.00,,---,0.00,VWS V14.01,2013-05-14 00:41:00,
2013-05-13 20:46:00,49.1,29.8,30.12,NNW,339,0.0,0.0,47,0.00,,---,0.00,VWS V14.01,2013-05-14 00:46:00,
2013-05-13 20:51:00,48.4,30.1,30.12,NNW,338,0.0,0.0,49,0.00,,---,0.00,VWS V14.01,2013-05-14 00:51:00,
2013-05-13 20:56:00,47.7,32.8,30.12,SE,145,1.0,1.0,56,0.00,,---,0.00,VWS V14.01,2013-05-14 00:56:00,
2013-05-13 21:00:00,47.3,31.0,30.12,SE,145,0.0,1.0,53,0.00,,---,0.00,VWS V14.01,2013-05-14 01:00:00,
2013-05-13 21:01:00,47.3,30.1,30.12,SE,146,0.0,0.0,51,0.00,,---,0.00,VWS V14.01,2013-05-14 01:01:00,
2013-05-13 21:06:00,47.2,30.5,30.12,SE,146,0.0,0.0,52,0.00,,---,0.00,VWS V14.01,2013-05-14 01:06:00,
2013-05-13 21:11:00,46.7,31.4,30.12,SE,145,1.0,2.0,55,0.00,,---,0.00,VWS V14.01,2013-05-14 01:11:00,
2013-05-13 21:16:00,46.4,30.7,30.12,SE,136,1.0,2.0,54,0.00,,---,0.00,VWS V14.01,2013-05-14 01:16:00,
2013-05-13 21:21:00,46.5,29.8,30.12,East,88,0.0,2.0,52,0.00,,---,0.00,VWS V14.01,2013-05-14 01:21:00,
2013-05-13 21:26:00,46.1,31.3,30.12,SSW,204,1.0,2.0,56,0.00,,---,0.00,VWS V14.01,2013-05-14 01:26:00,
2013-05-13 21:30:00,45.8,31.9,30.12,SSW,193,0.0,2.0,58,0.00,,---,0.00,VWS V14.01,2013-05-14 01:30:00,
2013-05-13 21:31:00,45.7,31.8,30.12,SSW,193,0.0,0.0,58,0.00,,---,0.00,VWS V14.01,2013-05-14 01:31:00,
2013-05-13 21:36:00,45.6,31.3,30.12,ESE,120,0.0,1.0,57,0.00,,---,0.00,VWS V14.01,2013-05-14 01:36:00,
2013-05-13 21:41:00,45.5,33.7,30.12,SE,141,0.0,2.0,63,0.00,,---,0.00,VWS V14.01,2013-05-14 01:41:00,
2013-05-13 21:46:00,45.2,31.7,30.12,SE,141,0.0,2.0,59,0.00,,---,0.00,VWS V14.01,2013-05-14 01:46:00,
2013-05-13 21:51:00,45.5,32.4,30.12,SE,141,0.0,2.0,60,0.00,,---,0.00,VWS V14.01,2013-05-14 01:51:00,
2013-05-13 21:56:00,45.5,33.7,30.12,SE,141,0.0,2.0,63,0.00,,---,0.00,VWS V14.01,2013-05-14 01:56:00,
2013-05-13 22:00:00,45.1,35.2,30.12,SE,141,0.0,2.0,68,0.00,,---,0.00,VWS V14.01,2013-05-14 02:00:00,
2013-05-13 22:01:00,45.0,35.5,30.12,SE,141,0.0,0.0,69,0.00,,---,0.00,VWS V14.01,2013-05-14 02:01:00,
2013-05-13 22:06:00,44.3,35.2,30.12,SE,141,0.0,0.0,70,0.00,,---,0.00,VWS V14.01,2013-05-14 02:06:00,
2013-05-13 22:11:00,44.0,35.2,30.12,SE,141,0.0,0.0,71,0.00,,---,0.00,VWS V14.01,2013-05-14 02:11:00,
2013-05-13 22:16:00,43.8,35.7,30.12,SE,141,0.0,0.0,73,0.00,,---,0.00,VWS V14.01,2013-05-14 02:16:00,
2013-05-13 22:21:00,43.5,34.0,30.12,SE,141,0.0,0.0,69,0.00,,---,0.00,VWS V14.01,2013-05-14 02:21:00,
2013-05-13 22:26:00,43.8,33.6,30.12,SE,141,0.0,0.0,67,0.00,,---,0.00,VWS V14.01,2013-05-14 02:26:00,
2013-05-13 22:30:00,43.9,34.0,30.12,SE,141,0.0,0.0,68,0.00,,---,0.00,VWS V14.01,2013-05-14 02:30:00,
2013-05-13 22:31:00,44.0,34.9,30.12,SE,141,0.0,0.0,70,0.00,,---,0.00,VWS V14.01,2013-05-14 02:31:00,
2013-05-13 22:36:00,43.9,35.5,30.12,SE,141,0.0,0.0,72,0.00,,---,0.00,VWS V14.01,2013-05-14 02:36:00,
2013-05-13 22:41:00,43.4,35.3,30.12,SE,141,0.0,0.0,73,0.00,,---,0.00,VWS V14.01,2013-05-14 02:41:00,
2013-05-13 22:46:00,42.9,34.8,30.12,SE,141,0.0,0.0,73,0.00,,---,0.00,VWS V14.01,2013-05-14 02:46:00,
2013-05-13 22:51:00,42.8,37.1,30.11,SE,141,0.0,0.0,80,0.00,,---,0.00,VWS V14.01,2013-05-14 02:51:00,
2013-05-13 22:56:00,42.7,37.3,30.11,SE,141,0.0,0.0,81,0.00,,---,0.00,VWS V14.01,2013-05-14 02:56:00,
2013-05-13 23:00:00,42.7,37.3,30.11,SE,141,0.0,0.0,81,0.00,,---,0.00,VWS V14.01,2013-05-14 03:00:00,
2013-05-13 23:01:00,42.7,37.3,30.11,SE,141,0.0,0.0,81,0.00,,---,0.00,VWS V14.01,2013-05-14 03:01:00,
2013-05-13 23:06:00,42.8,37.4,30.11,SE,141,0.0,0.0,81,0.00,,---,0.00,VWS V14.01,2013-05-14 03:06:00,
2013-05-13 23:11:00,42.7,37.3,30.11,SE,141,0.0,0.0,81,0.00,,---,0.00,VWS V14.01,2013-05-14 03:11:00,
2013-05-13 23:16:00,42.7,37.3,30.11,SE,141,0.0,0.0,81,0.00,,---,0.00,VWS V14.01,2013-05-14 03:16:00,
2013-05-13 23:22:00,42.6,36.9,30.11,SE,141,0.0,0.0,80,0.00,,---,0.00,VWS V14.01,2013-05-14 03:22:00,
2013-05-13 23:27:00,42.8,37.7,30.11,SE,141,0.0,0.0,82,0.00,,---,0.00,VWS V14.01,2013-05-14 03:27:00,
2013-05-13 23:30:00,42.9,37.8,30.11,SE,141,0.0,0.0,82,0.00,,---,0.00,VWS V14.01,2013-05-14 03:30:00,
2013-05-13 23:32:00,42.9,37.5,30.11,SE,141,0.0,0.0,81,0.00,,---,0.00,VWS V14.01,2013-05-14 03:32:00,
2013-05-13 23:37:00,42.9,36.5,30.11,SE,141,0.0,0.0,78,0.00,,---,0.00,VWS V14.01,2013-05-14 03:37:00,
2013-05-13 23:42:00,43.1,36.7,30.10,SE,141,0.0,0.0,78,0.00,,---,0.00,VWS V14.01,2013-05-14 03:42:00,
2013-05-13 23:47:00,43.2,37.8,30.10,SE,141,0.0,0.0,81,0.00,,---,0.00,VWS V14.01,2013-05-14 03:47:00,
2013-05-13 23:52:00,43.0,36.3,30.10,SE,141,0.0,0.0,77,0.00,,---,0.00,VWS V14.01,2013-05-14 03:52:00,
2013-05-13 23:57:00,42.9,36.2,30.10,SE,141,0.0,0.0,77,0.00,,---,0.00,VWS V14.01,2013-05-14 03:57:00,